sensor_id;sensor_type;location;lat;lon;timestamp;P1;durP1;ratioP1;P2;durP2;ratioP2
7169;SDS011;3626;42.656;23.312;2023-10-19T00:00:02;21.45;;;11.25;;
7169;SDS011;3626;42.656;23.312;2023-10-19T00:00:23;22.19;;;11.20;;
7169;SDS011;3626;42.656;23.312;2023-10-19T00:00:30;21.93;;;10.87;;
7169;SDS011;3626;42.656;23.312;2023-10-19T00:00:39;21.30;;;10.46;;
7169;SDS011;3626;42.656;23.312;2023-10-19T00:00:49;21.30;;;10.45;;
7169;SDS011;3626;42.656;23.312;2023-10-19T00:00:55;20.80;;;10.50;;
7169;SDS011;3626;42.656;23.312;2023-10-19T00:01:01;20.63;;;10.57;;
7169;SDS011;3626;42.656;23.312;2023-10-19T00:01:09;20.04;;;10.11;;
7169;SDS011;3626;42.656;23.312;2023-10-19T00:01:16;19.33;;;10.00;;
7169;SDS011;3626;42.656;23.312;2023-10-19T00:01:23;19.03;;;9.90;;
7169;SDS011;3626;42.656;23.312;2023-10-19T00:01:30;19.48;;;10.07;;
7169;SDS011;3626;42.656;23.312;2023-10-19T00:01:39;19.88;;;10.35;;
7169;SDS011;3626;42.656;23.312;2023-10-19T00:01:44;19.33;;;10.32;;
7169;SDS011;3626;42.656;23.312;2023-10-19T00:01:50;19.52;;;10.32;;
7169;SDS011;3626;42.656;23.312;2023-10-19T00:01:56;19.80;;;10.43;;
7169;SDS011;3626;42.656;23.312;2023-10-19T00:02:03;19.67;;;10.33;;
7169;SDS011;3626;42.656;23.312;2023-10-19T00:02:08;20.10;;;10.57;;
7169;SDS011;3626;42.656;23.312;2023-10-19T00:02:16;20.70;;;10.70;;
7169;SDS011;3626;42.656;23.312;2023-10-19T00:02:24;20.60;;;10.70;;
7169;SDS011;3626;42.656;23.312;2023-10-19T00:02:30;20.27;;;10.57;;
7169;SDS011;3626;42.656;23.312;2023-10-19T00:02:36;20.08;;;10.22;;
7169;SDS011;3626;42.656;23.312;2023-10-19T00:02:41;20.23;;;10.17;;
7169;SDS011;3626;42.656;23.312;2023-10-19T00:02:48;19.80;;;10.10;;
7169;SDS011;3626;42.656;23.312;2023-10-19T00:02:56;20.52;;;10.03;;
7169;SDS011;3626;42.656;23.312;2023-10-19T00:03:02;20.70;;;10.10;;
7169;SDS011;3626;42.656;23.312;2023-10-19T00:03:08;20.16;;;9.92;;
7169;SDS011;3626;42.656;23.312;2023-10-19T00:03:14;20.00;;;9.90;;
7169;SDS011;3626;42.656;23.312;2023-10-19T00:03:20;19.80;;;9.86;;
7169;SDS011;3626;42.656;23.312;2023-10-19T00:03:25;19.63;;;9.80;;
7169;SDS011;3626;42.656;23.312;2023-10-19T00:03:32;19.90;;;10.10;;
7169;SDS011;3626;42.656;23.312;2023-10-19T00:03:38;19.82;;;10.10;;
7169;SDS011;3626;42.656;23.312;2023-10-19T00:03:44;18.80;;;9.73;;
7169;SDS011;3626;42.656;23.312;2023-10-19T00:03:49;19.17;;;9.70;;
7169;SDS011;3626;42.656;23.312;2023-10-19T00:03:55;18.63;;;9.73;;
7169;SDS011;3626;42.656;23.312;2023-10-19T00:04:01;17.73;;;9.48;;
7169;SDS011;3626;42.656;23.312;2023-10-19T00:04:06;17.77;;;9.40;;
7169;SDS011;3626;42.656;23.312;2023-10-19T00:04:12;17.75;;;9.35;;
7169;SDS011;3626;42.656;23.312;2023-10-19T00:04:18;18.17;;;9.33;;
7169;SDS011;3626;42.656;23.312;2023-10-19T00:04:24;18.18;;;9.34;;
7169;SDS011;3626;42.656;23.312;2023-10-19T00:04:30;17.83;;;9.00;;
7169;SDS011;3626;42.656;23.312;2023-10-19T00:04:37;18.18;;;9.10;;
7169;SDS011;3626;42.656;23.312;2023-10-19T00:04:45;18.77;;;9.57;;
7169;SDS011;3626;42.656;23.312;2023-10-19T00:04:51;17.67;;;9.27;;
7169;SDS011;3626;42.656;23.312;2023-10-19T00:04:56;16.80;;;9.00;;
7169;SDS011;3626;42.656;23.312;2023-10-19T00:05:02;16.90;;;9.00;;
7169;SDS011;3626;42.656;23.312;2023-10-19T00:05:08;16.77;;;9.05;;
7169;SDS011;3626;42.656;23.312;2023-10-19T00:05:14;16.53;;;9.10;;
7169;SDS011;3626;42.656;23.312;2023-10-19T00:05:21;16.63;;;9.20;;
7169;SDS011;3626;42.656;23.312;2023-10-19T00:05:31;16.51;;;9.25;;
7169;SDS011;3626;42.656;23.312;2023-10-19T00:05:38;16.36;;;9.28;;
7169;SDS011;3626;42.656;23.312;2023-10-19T00:05:44;15.73;;;9.13;;
7169;SDS011;3626;42.656;23.312;2023-10-19T00:05:51;15.82;;;9.10;;
7169;SDS011;3626;42.656;23.312;2023-10-19T00:05:56;16.67;;;9.33;;
7169;SDS011;3626;42.656;23.312;2023-10-19T00:06:02;17.10;;;9.38;;
7169;SDS011;3626;42.656;23.312;2023-10-19T00:06:10;17.23;;;9.50;;
7169;SDS011;3626;42.656;23.312;2023-10-19T00:06:16;16.47;;;9.20;;
7169;SDS011;3626;42.656;23.312;2023-10-19T00:06:23;16.88;;;9.24;;
7169;SDS011;3626;42.656;23.312;2023-10-19T00:06:28;16.73;;;9.30;;
7169;SDS011;3626;42.656;23.312;2023-10-19T00:06:35;16.16;;;9.20;;
7169;SDS011;3626;42.656;23.312;2023-10-19T00:06:41;16.60;;;9.43;;
7169;SDS011;3626;42.656;23.312;2023-10-19T00:06:50;17.53;;;9.70;;
7169;SDS011;3626;42.656;23.312;2023-10-19T00:06:55;17.13;;;9.67;;
7169;SDS011;3626;42.656;23.312;2023-10-19T00:07:01;16.20;;;9.30;;
7169;SDS011;3626;42.656;23.312;2023-10-19T00:07:09;16.40;;;9.10;;
7169;SDS011;3626;42.656;23.312;2023-10-19T00:07:20;17.40;;;9.17;;
7169;SDS011;3626;42.656;23.312;2023-10-19T00:07:26;17.85;;;9.18;;
7169;SDS011;3626;42.656;23.312;2023-10-19T00:07:32;17.85;;;9.15;;
7169;SDS011;3626;42.656;23.312;2023-10-19T00:07:38;17.83;;;8.93;;
7169;SDS011;3626;42.656;23.312;2023-10-19T00:07:44;17.38;;;8.63;;
7169;SDS011;3626;42.656;23.312;2023-10-19T00:07:49;16.70;;;8.68;;
7169;SDS011;3626;42.656;23.312;2023-10-19T00:07:58;16.67;;;8.67;;
7169;SDS011;3626;42.656;23.312;2023-10-19T00:08:05;16.84;;;9.00;;
7169;SDS011;3626;42.656;23.312;2023-10-19T00:08:20;15.98;;;9.06;;
7169;SDS011;3626;42.656;23.312;2023-10-19T00:08:26;16.10;;;9.00;;
7169;SDS011;3626;42.656;23.312;2023-10-19T00:08:41;16.46;;;9.29;;
7169;SDS011;3626;42.656;23.312;2023-10-19T00:08:47;16.83;;;9.52;;
7169;SDS011;3626;42.656;23.312;2023-10-19T00:08:52;17.30;;;9.57;;
7169;SDS011;3626;42.656;23.312;2023-10-19T00:08:58;17.55;;;9.65;;
7169;SDS011;3626;42.656;23.312;2023-10-19T00:09:04;17.04;;;9.30;;
7169;SDS011;3626;42.656;23.312;2023-10-19T00:09:16;17.78;;;9.52;;
7169;SDS011;3626;42.656;23.312;2023-10-19T00:09:21;17.35;;;9.70;;
7169;SDS011;3626;42.656;23.312;2023-10-19T00:09:27;16.27;;;9.48;;
7169;SDS011;3626;42.656;23.312;2023-10-19T00:09:41;16.58;;;9.26;;
7169;SDS011;3626;42.656;23.312;2023-10-19T00:09:51;16.46;;;9.11;;
7169;SDS011;3626;42.656;23.312;2023-10-19T00:10:00;16.17;;;9.10;;
7169;SDS011;3626;42.656;23.312;2023-10-19T00:10:08;16.49;;;9.18;;
7169;SDS011;3626;42.656;23.312;2023-10-19T00:10:15;15.87;;;9.00;;
7169;SDS011;3626;42.656;23.312;2023-10-19T00:10:21;15.64;;;8.72;;
7169;SDS011;3626;42.656;23.312;2023-10-19T00:10:27;16.03;;;8.87;;
7169;SDS011;3626;42.656;23.312;2023-10-19T00:10:37;16.01;;;9.11;;
7169;SDS011;3626;42.656;23.312;2023-10-19T00:10:45;15.72;;;9.06;;
7169;SDS011;3626;42.656;23.312;2023-10-19T00:10:53;15.25;;;8.90;;
7169;SDS011;3626;42.656;23.312;2023-10-19T00:11:08;16.42;;;9.23;;
7169;SDS011;3626;42.656;23.312;2023-10-19T00:11:14;17.20;;;9.30;;
7169;SDS011;3626;42.656;23.312;2023-10-19T00:11:27;17.21;;;9.27;;
7169;SDS011;3626;42.656;23.312;2023-10-19T00:11:33;16.50;;;9.03;;
7169;SDS011;3626;42.656;23.312;2023-10-19T00:11:41;16.93;;;9.07;;
7169;SDS011;3626;42.656;23.312;2023-10-19T00:11:47;17.44;;;9.34;;
7169;SDS011;3626;42.656;23.312;2023-10-19T00:11:56;16.97;;;9.22;;
7169;SDS011;3626;42.656;23.312;2023-10-19T00:12:03;16.47;;;8.90;;
7169;SDS011;3626;42.656;23.312;2023-10-19T00:12:10;16.42;;;8.85;;
7169;SDS011;3626;42.656;23.312;2023-10-19T00:12:16;15.70;;;8.70;;
7169;SDS011;3626;42.656;23.312;2023-10-19T00:12:21;15.80;;;8.95;;
7169;SDS011;3626;42.656;23.312;2023-10-19T00:12:27;15.90;;;8.98;;
7169;SDS011;3626;42.656;23.312;2023-10-19T00:12:33;15.77;;;8.90;;
7169;SDS011;3626;42.656;23.312;2023-10-19T00:12:39;15.07;;;8.77;;
7169;SDS011;3626;42.656;23.312;2023-10-19T00:12:44;15.23;;;8.70;;
7169;SDS011;3626;42.656;23.312;2023-10-19T00:12:55;16.80;;;8.76;;
7169;SDS011;3626;42.656;23.312;2023-10-19T00:13:05;17.58;;;8.82;;
7169;SDS011;3626;42.656;23.312;2023-10-19T00:13:11;17.58;;;9.07;;
7169;SDS011;3626;42.656;23.312;2023-10-19T00:13:17;17.90;;;9.17;;
7169;SDS011;3626;42.656;23.312;2023-10-19T00:13:24;18.00;;;9.27;;
7169;SDS011;3626;42.656;23.312;2023-10-19T00:13:30;18.30;;;9.43;;
7169;SDS011;3626;42.656;23.312;2023-10-19T00:13:36;18.25;;;9.45;;
7169;SDS011;3626;42.656;23.312;2023-10-19T00:13:43;18.80;;;9.73;;
7169;SDS011;3626;42.656;23.312;2023-10-19T00:13:49;17.57;;;9.70;;
7169;SDS011;3626;42.656;23.312;2023-10-19T00:13:55;18.34;;;10.06;;
7169;SDS011;3626;42.656;23.312;2023-10-19T00:14:03;18.20;;;10.03;;
7169;SDS011;3626;42.656;23.312;2023-10-19T00:14:09;18.83;;;10.10;;
7169;SDS011;3626;42.656;23.312;2023-10-19T00:14:20;19.17;;;10.09;;
7169;SDS011;3626;42.656;23.312;2023-10-19T00:14:26;19.35;;;10.10;;
7169;SDS011;3626;42.656;23.312;2023-10-19T00:14:32;19.83;;;10.27;;
7169;SDS011;3626;42.656;23.312;2023-10-19T00:14:38;20.67;;;10.33;;
7169;SDS011;3626;42.656;23.312;2023-10-19T00:14:43;20.45;;;10.10;;
7169;SDS011;3626;42.656;23.312;2023-10-19T00:14:49;20.80;;;10.00;;
7169;SDS011;3626;42.656;23.312;2023-10-19T00:14:55;20.13;;;9.80;;
7169;SDS011;3626;42.656;23.312;2023-10-19T00:15:00;19.53;;;9.90;;
7169;SDS011;3626;42.656;23.312;2023-10-19T00:15:09;19.80;;;9.93;;
7169;SDS011;3626;42.656;23.312;2023-10-19T00:15:16;19.55;;;9.82;;
7169;SDS011;3626;42.656;23.312;2023-10-19T00:15:27;19.71;;;9.92;;
7169;SDS011;3626;42.656;23.312;2023-10-19T00:15:36;19.29;;;9.67;;
7169;SDS011;3626;42.656;23.312;2023-10-19T00:15:45;19.81;;;9.94;;
7169;SDS011;3626;42.656;23.312;2023-10-19T00:15:53;19.63;;;9.88;;
7169;SDS011;3626;42.656;23.312;2023-10-19T00:16:02;19.51;;;9.61;;
7169;SDS011;3626;42.656;23.312;2023-10-19T00:16:16;19.11;;;9.34;;
7169;SDS011;3626;42.656;23.312;2023-10-19T00:16:22;18.50;;;9.25;;
7169;SDS011;3626;42.656;23.312;2023-10-19T00:16:31;17.67;;;9.20;;
7169;SDS011;3626;42.656;23.312;2023-10-19T00:16:41;17.90;;;9.13;;
7169;SDS011;3626;42.656;23.312;2023-10-19T00:16:49;17.16;;;9.04;;
7169;SDS011;3626;42.656;23.312;2023-10-19T00:16:56;17.38;;;9.00;;
7169;SDS011;3626;42.656;23.312;2023-10-19T00:17:05;16.73;;;9.01;;
7169;SDS011;3626;42.656;23.312;2023-10-19T00:17:15;17.26;;;9.06;;
7169;SDS011;3626;42.656;23.312;2023-10-19T00:17:26;18.77;;;9.00;;
7169;SDS011;3626;42.656;23.312;2023-10-19T00:17:32;18.87;;;8.90;;
7169;SDS011;3626;42.656;23.312;2023-10-19T00:17:38;19.75;;;8.98;;
7169;SDS011;3626;42.656;23.312;2023-10-19T00:17:44;19.38;;;9.05;;
7169;SDS011;3626;42.656;23.312;2023-10-19T00:17:50;19.23;;;9.20;;
7169;SDS011;3626;42.656;23.312;2023-10-19T00:17:59;19.93;;;9.50;;
7169;SDS011;3626;42.656;23.312;2023-10-19T00:18:12;20.10;;;9.69;;
7169;SDS011;3626;42.656;23.312;2023-10-19T00:18:29;20.61;;;10.20;;
7169;SDS011;3626;42.656;23.312;2023-10-19T00:18:37;19.67;;;10.33;;
7169;SDS011;3626;42.656;23.312;2023-10-19T00:18:48;20.13;;;10.30;;
7169;SDS011;3626;42.656;23.312;2023-10-19T00:18:54;19.70;;;10.20;;
7169;SDS011;3626;42.656;23.312;2023-10-19T00:19:04;20.10;;;10.16;;
7169;SDS011;3626;42.656;23.312;2023-10-19T00:19:10;20.50;;;10.15;;
7169;SDS011;3626;42.656;23.312;2023-10-19T00:19:16;20.67;;;10.10;;
7169;SDS011;3626;42.656;23.312;2023-10-19T00:19:24;20.20;;;10.27;;
7169;SDS011;3626;42.656;23.312;2023-10-19T00:19:33;21.10;;;10.67;;
7169;SDS011;3626;42.656;23.312;2023-10-19T00:19:44;21.72;;;10.74;;
7169;SDS011;3626;42.656;23.312;2023-10-19T00:20:11;22.95;;;11.18;;
7169;SDS011;3626;42.656;23.312;2023-10-19T00:20:42;21.80;;;11.16;;
7169;SDS011;3626;42.656;23.312;2023-10-19T00:20:56;20.54;;;10.71;;
7169;SDS011;3626;42.656;23.312;2023-10-19T00:21:04;19.70;;;10.57;;
7169;SDS011;3626;42.656;23.312;2023-10-19T00:21:24;20.83;;;10.56;;
7169;SDS011;3626;42.656;23.312;2023-10-19T00:21:31;21.52;;;10.42;;
7169;SDS011;3626;42.656;23.312;2023-10-19T00:21:53;22.06;;;10.31;;
7169;SDS011;3626;42.656;23.312;2023-10-19T00:22:00;22.37;;;9.93;;
7169;SDS011;3626;42.656;23.312;2023-10-19T00:22:13;22.81;;;10.15;;
7169;SDS011;3626;42.656;23.312;2023-10-19T00:22:26;23.52;;;10.25;;
7169;SDS011;3626;42.656;23.312;2023-10-19T00:22:35;23.05;;;10.35;;
7169;SDS011;3626;42.656;23.312;2023-10-19T00:22:41;22.70;;;10.57;;
7169;SDS011;3626;42.656;23.312;2023-10-19T00:22:47;22.52;;;10.70;;
7169;SDS011;3626;42.656;23.312;2023-10-19T00:22:53;22.60;;;10.88;;
7169;SDS011;3626;42.656;23.312;2023-10-19T00:22:59;23.00;;;10.97;;
7169;SDS011;3626;42.656;23.312;2023-10-19T00:23:07;22.59;;;10.69;;
7169;SDS011;3626;42.656;23.312;2023-10-19T00:23:15;20.07;;;10.23;;
7169;SDS011;3626;42.656;23.312;2023-10-19T00:23:23;19.53;;;10.54;;
7169;SDS011;3626;42.656;23.312;2023-10-19T00:23:36;20.41;;;10.77;;
7169;SDS011;3626;42.656;23.312;2023-10-19T00:23:44;19.65;;;10.63;;
7169;SDS011;3626;42.656;23.312;2023-10-19T00:23:53;19.35;;;10.63;;
7169;SDS011;3626;42.656;23.312;2023-10-19T00:24:02;19.73;;;10.97;;
7169;SDS011;3626;42.656;23.312;2023-10-19T00:24:10;20.47;;;11.20;;
7169;SDS011;3626;42.656;23.312;2023-10-19T00:24:16;21.10;;;11.27;;
7169;SDS011;3626;42.656;23.312;2023-10-19T00:24:23;20.75;;;10.90;;
7169;SDS011;3626;42.656;23.312;2023-10-19T00:24:29;19.90;;;10.57;;
7169;SDS011;3626;42.656;23.312;2023-10-19T00:24:36;20.18;;;10.50;;
7169;SDS011;3626;42.656;23.312;2023-10-19T00:24:44;19.78;;;10.28;;
7169;SDS011;3626;42.656;23.312;2023-10-19T00:24:51;19.68;;;9.92;;
7169;SDS011;3626;42.656;23.312;2023-10-19T00:24:56;18.80;;;9.50;;
7169;SDS011;3626;42.656;23.312;2023-10-19T00:25:05;18.76;;;9.30;;
7169;SDS011;3626;42.656;23.312;2023-10-19T00:25:14;17.70;;;9.00;;
7169;SDS011;3626;42.656;23.312;2023-10-19T00:25:19;17.80;;;8.93;;
7169;SDS011;3626;42.656;23.312;2023-10-19T00:25:28;18.40;;;9.20;;
7169;SDS011;3626;42.656;23.312;2023-10-19T00:25:34;18.63;;;9.40;;
7169;SDS011;3626;42.656;23.312;2023-10-19T00:25:40;18.67;;;9.50;;
7169;SDS011;3626;42.656;23.312;2023-10-19T00:25:46;18.96;;;9.78;;
7169;SDS011;3626;42.656;23.312;2023-10-19T00:25:56;19.47;;;10.00;;
7169;SDS011;3626;42.656;23.312;2023-10-19T00:26:02;19.50;;;10.02;;
7169;SDS011;3626;42.656;23.312;2023-10-19T00:39:03;17.82;;;9.40;;
7169;SDS011;3626;42.656;23.312;2023-10-19T00:39:19;16.56;;;9.15;;
7169;SDS011;3626;42.656;23.312;2023-10-19T00:39:26;17.40;;;9.47;;
7169;SDS011;3626;42.656;23.312;2023-10-19T00:39:32;17.65;;;9.70;;
7169;SDS011;3626;42.656;23.312;2023-10-19T00:39:48;18.29;;;9.85;;
7169;SDS011;3626;42.656;23.312;2023-10-19T00:39:59;19.43;;;10.19;;
7169;SDS011;3626;42.656;23.312;2023-10-19T00:40:19;20.51;;;10.60;;
7169;SDS011;3626;42.656;23.312;2023-10-19T00:40:39;21.01;;;11.19;;
7169;SDS011;3626;42.656;23.312;2023-10-19T00:40:49;21.17;;;11.20;;
7169;SDS011;3626;42.656;23.312;2023-10-19T00:40:58;21.03;;;11.43;;
7169;SDS011;3626;42.656;23.312;2023-10-19T00:41:09;20.98;;;11.50;;
7169;SDS011;3626;42.656;23.312;2023-10-19T00:41:25;21.24;;;11.26;;
7169;SDS011;3626;42.656;23.312;2023-10-19T00:41:34;21.80;;;10.70;;
7169;SDS011;3626;42.656;23.312;2023-10-19T00:41:42;20.63;;;10.47;;
7169;SDS011;3626;42.656;23.312;2023-10-19T00:41:50;21.10;;;10.52;;
7169;SDS011;3626;42.656;23.312;2023-10-19T00:42:00;20.76;;;10.30;;
7169;SDS011;3626;42.656;23.312;2023-10-19T00:42:07;20.37;;;10.17;;
7169;SDS011;3626;42.656;23.312;2023-10-19T00:42:13;20.57;;;10.50;;
7169;SDS011;3626;42.656;23.312;2023-10-19T00:42:20;21.60;;;10.90;;
7169;SDS011;3626;42.656;23.312;2023-10-19T00:42:29;21.29;;;10.81;;
7169;SDS011;3626;42.656;23.312;2023-10-19T00:42:36;20.46;;;10.80;;
7169;SDS011;3626;42.656;23.312;2023-10-19T00:42:48;21.53;;;10.81;;
7169;SDS011;3626;42.656;23.312;2023-10-19T00:43:02;21.88;;;10.66;;
7169;SDS011;3626;42.656;23.312;2023-10-19T00:43:11;22.10;;;10.60;;
7169;SDS011;3626;42.656;23.312;2023-10-19T00:43:25;21.80;;;10.48;;
7169;SDS011;3626;42.656;23.312;2023-10-19T00:43:32;21.56;;;10.29;;
7169;SDS011;3626;42.656;23.312;2023-10-19T00:43:41;21.41;;;10.30;;
7169;SDS011;3626;42.656;23.312;2023-10-19T00:43:48;21.24;;;10.30;;
7169;SDS011;3626;42.656;23.312;2023-10-19T00:43:54;20.98;;;10.30;;
7169;SDS011;3626;42.656;23.312;2023-10-19T00:44:03;21.34;;;10.39;;
7169;SDS011;3626;42.656;23.312;2023-10-19T00:44:12;21.63;;;10.33;;
7169;SDS011;3626;42.656;23.312;2023-10-19T00:44:21;21.29;;;10.31;;
7169;SDS011;3626;42.656;23.312;2023-10-19T00:44:30;21.70;;;10.40;;
7169;SDS011;3626;42.656;23.312;2023-10-19T00:44:42;21.20;;;10.55;;
7169;SDS011;3626;42.656;23.312;2023-10-19T00:44:54;20.64;;;10.60;;
7169;SDS011;3626;42.656;23.312;2023-10-19T00:45:07;20.16;;;10.65;;
7169;SDS011;3626;42.656;23.312;2023-10-19T00:45:18;19.89;;;10.33;;
7169;SDS011;3626;42.656;23.312;2023-10-19T00:45:30;19.31;;;10.26;;
7169;SDS011;3626;42.656;23.312;2023-10-19T00:45:37;19.07;;;10.30;;
7169;SDS011;3626;42.656;23.312;2023-10-19T00:45:45;20.40;;;10.40;;
7169;SDS011;3626;42.656;23.312;2023-10-19T00:45:52;20.62;;;10.55;;
7169;SDS011;3626;42.656;23.312;2023-10-19T00:45:58;20.87;;;10.63;;
7169;SDS011;3626;42.656;23.312;2023-10-19T00:46:06;20.73;;;10.64;;
7169;SDS011;3626;42.656;23.312;2023-10-19T00:46:20;21.01;;;10.81;;
7169;SDS011;3626;42.656;23.312;2023-10-19T00:46:25;20.98;;;10.63;;
7169;SDS011;3626;42.656;23.312;2023-10-19T00:46:37;20.64;;;10.59;;
7169;SDS011;3626;42.656;23.312;2023-10-19T00:46:48;18.37;;;10.30;;
7169;SDS011;3626;42.656;23.312;2023-10-19T00:47:05;18.96;;;10.27;;
7169;SDS011;3626;42.656;23.312;2023-10-19T00:47:17;18.34;;;10.24;;
7169;SDS011;3626;42.656;23.312;2023-10-19T00:47:24;18.30;;;10.33;;
7169;SDS011;3626;42.656;23.312;2023-10-19T00:47:30;18.30;;;10.15;;
7169;SDS011;3626;42.656;23.312;2023-10-19T00:47:44;18.50;;;9.88;;
7169;SDS011;3626;42.656;23.312;2023-10-19T00:47:51;18.34;;;9.66;;
7169;SDS011;3626;42.656;23.312;2023-10-19T00:47:58;18.47;;;9.53;;
7169;SDS011;3626;42.656;23.312;2023-10-19T00:48:06;18.07;;;9.40;;
7169;SDS011;3626;42.656;23.312;2023-10-19T00:48:13;18.70;;;9.70;;
7169;SDS011;3626;42.656;23.312;2023-10-19T00:48:19;18.87;;;9.67;;
7169;SDS011;3626;42.656;23.312;2023-10-19T00:48:31;19.08;;;9.76;;
7169;SDS011;3626;42.656;23.312;2023-10-19T00:48:39;20.16;;;10.06;;
7169;SDS011;3626;42.656;23.312;2023-10-19T00:48:49;20.76;;;10.39;;
7169;SDS011;3626;42.656;23.312;2023-10-19T00:48:59;20.23;;;10.43;;
7169;SDS011;3626;42.656;23.312;2023-10-19T00:49:05;20.90;;;10.40;;
7169;SDS011;3626;42.656;23.312;2023-10-19T00:49:13;20.63;;;10.13;;
7169;SDS011;3626;42.656;23.312;2023-10-19T00:49:21;20.60;;;10.20;;
7169;SDS011;3626;42.656;23.312;2023-10-19T00:49:28;21.83;;;10.40;;
7169;SDS011;3626;42.656;23.312;2023-10-19T00:49:35;20.80;;;10.37;;
7169;SDS011;3626;42.656;23.312;2023-10-19T00:49:43;20.38;;;10.16;;
7169;SDS011;3626;42.656;23.312;2023-10-19T00:49:49;19.95;;;9.95;;
7169;SDS011;3626;42.656;23.312;2023-10-19T00:49:55;19.73;;;9.83;;
7169;SDS011;3626;42.656;23.312;2023-10-19T00:50:01;19.73;;;10.10;;
7169;SDS011;3626;42.656;23.312;2023-10-19T00:50:09;19.80;;;10.30;;
7169;SDS011;3626;42.656;23.312;2023-10-19T00:50:20;20.54;;;10.39;;
7169;SDS011;3626;42.656;23.312;2023-10-19T00:50:27;20.86;;;10.50;;
7169;SDS011;3626;42.656;23.312;2023-10-19T00:50:36;20.23;;;10.40;;
7169;SDS011;3626;42.656;23.312;2023-10-19T00:50:43;20.96;;;10.40;;
7169;SDS011;3626;42.656;23.312;2023-10-19T00:50:52;21.59;;;10.40;;
7169;SDS011;3626;42.656;23.312;2023-10-19T00:51:11;20.98;;;10.16;;
7169;SDS011;3626;42.656;23.312;2023-10-19T00:51:33;19.09;;;9.77;;
7169;SDS011;3626;42.656;23.312;2023-10-19T00:51:48;19.36;;;9.88;;
7169;SDS011;3626;42.656;23.312;2023-10-19T00:52:00;20.67;;;10.24;;
7169;SDS011;3626;42.656;23.312;2023-10-19T00:52:16;20.90;;;10.36;;
7169;SDS011;3626;42.656;23.312;2023-10-19T00:52:25;20.90;;;10.25;;
7169;SDS011;3626;42.656;23.312;2023-10-19T00:52:31;21.23;;;10.17;;
7169;SDS011;3626;42.656;23.312;2023-10-19T00:52:37;20.05;;;10.05;;
7169;SDS011;3626;42.656;23.312;2023-10-19T00:52:48;18.61;;;9.89;;
7169;SDS011;3626;42.656;23.312;2023-10-19T00:52:54;18.58;;;9.82;;
7169;SDS011;3626;42.656;23.312;2023-10-19T00:53:03;18.40;;;9.73;;
7169;SDS011;3626;42.656;23.312;2023-10-19T00:53:12;18.36;;;9.69;;
7169;SDS011;3626;42.656;23.312;2023-10-19T00:53:19;19.70;;;9.88;;
7169;SDS011;3626;42.656;23.312;2023-10-19T00:53:25;19.63;;;9.90;;
7169;SDS011;3626;42.656;23.312;2023-10-19T00:53:31;19.83;;;10.13;;
7169;SDS011;3626;42.656;23.312;2023-10-19T00:53:39;20.90;;;10.37;;
7169;SDS011;3626;42.656;23.312;2023-10-19T00:53:46;20.80;;;10.52;;
7169;SDS011;3626;42.656;23.312;2023-10-19T00:53:54;20.02;;;10.60;;
7169;SDS011;3626;42.656;23.312;2023-10-19T00:54:03;20.85;;;10.50;;
7169;SDS011;3626;42.656;23.312;2023-10-19T00:54:16;21.69;;;10.48;;
7169;SDS011;3626;42.656;23.312;2023-10-19T00:54:32;21.59;;;10.43;;
7169;SDS011;3626;42.656;23.312;2023-10-19T00:54:40;21.30;;;10.30;;
7169;SDS011;3626;42.656;23.312;2023-10-19T00:54:56;20.70;;;9.80;;
7169;SDS011;3626;42.656;23.312;2023-10-19T00:55:04;19.48;;;9.30;;
7169;SDS011;3626;42.656;23.312;2023-10-19T00:55:12;18.43;;;9.13;;
7169;SDS011;3626;42.656;23.312;2023-10-19T00:55:18;18.06;;;8.88;;
7169;SDS011;3626;42.656;23.312;2023-10-19T00:55:26;18.78;;;8.80;;
7169;SDS011;3626;42.656;23.312;2023-10-19T00:55:33;17.92;;;8.54;;
7169;SDS011;3626;42.656;23.312;2023-10-19T00:55:39;19.10;;;8.80;;
7169;SDS011;3626;42.656;23.312;2023-10-19T00:55:47;20.06;;;9.00;;
7169;SDS011;3626;42.656;23.312;2023-10-19T00:55:52;19.67;;;9.07;;
7169;SDS011;3626;42.656;23.312;2023-10-19T00:55:58;18.90;;;9.05;;
7169;SDS011;3626;42.656;23.312;2023-10-19T00:56:06;19.44;;;9.36;;
7169;SDS011;3626;42.656;23.312;2023-10-19T00:56:14;19.27;;;9.40;;
7169;SDS011;3626;42.656;23.312;2023-10-19T00:56:24;18.68;;;9.48;;
7169;SDS011;3626;42.656;23.312;2023-10-19T00:56:32;18.87;;;9.40;;
7169;SDS011;3626;42.656;23.312;2023-10-19T00:56:38;17.90;;;9.15;;
7169;SDS011;3626;42.656;23.312;2023-10-19T00:56:51;17.66;;;9.07;;
7169;SDS011;3626;42.656;23.312;2023-10-19T00:56:57;18.65;;;9.27;;
7169;SDS011;3626;42.656;23.312;2023-10-19T00:57:09;19.27;;;9.24;;
7169;SDS011;3626;42.656;23.312;2023-10-19T00:57:17;19.68;;;9.36;;
7169;SDS011;3626;42.656;23.312;2023-10-19T00:57:25;19.87;;;9.54;;
7169;SDS011;3626;42.656;23.312;2023-10-19T00:57:39;19.86;;;9.56;;
7169;SDS011;3626;42.656;23.312;2023-10-19T00:57:47;19.83;;;9.60;;
7169;SDS011;3626;42.656;23.312;2023-10-19T00:57:54;20.23;;;9.70;;
7169;SDS011;3626;42.656;23.312;2023-10-19T00:58:02;19.97;;;9.70;;
7169;SDS011;3626;42.656;23.312;2023-10-19T00:58:14;19.66;;;9.74;;
7169;SDS011;3626;42.656;23.312;2023-10-19T00:58:23;19.07;;;9.67;;
7169;SDS011;3626;42.656;23.312;2023-10-19T00:58:35;19.50;;;9.73;;
7169;SDS011;3626;42.656;23.312;2023-10-19T00:58:44;18.73;;;9.43;;
7169;SDS011;3626;42.656;23.312;2023-10-19T00:58:58;17.30;;;9.35;;
7169;SDS011;3626;42.656;23.312;2023-10-19T00:59:05;17.07;;;9.03;;
7169;SDS011;3626;42.656;23.312;2023-10-19T00:59:18;17.09;;;8.82;;
7169;SDS011;3626;42.656;23.312;2023-10-19T00:59:28;17.42;;;8.73;;
7169;SDS011;3626;42.656;23.312;2023-10-19T00:59:36;16.78;;;8.50;;
7169;SDS011;3626;42.656;23.312;2023-10-19T00:59:48;17.83;;;8.59;;
7169;SDS011;3626;42.656;23.312;2023-10-19T00:59:54;17.14;;;8.56;;
7169;SDS011;3626;42.656;23.312;2023-10-19T01:00:06;17.33;;;8.73;;
7169;SDS011;3626;42.656;23.312;2023-10-19T01:00:16;17.91;;;8.84;;
7169;SDS011;3626;42.656;23.312;2023-10-19T01:00:27;17.71;;;8.82;;
7169;SDS011;3626;42.656;23.312;2023-10-19T01:00:36;18.10;;;9.27;;
7169;SDS011;3626;42.656;23.312;2023-10-19T01:00:48;18.00;;;9.70;;
7169;SDS011;3626;42.656;23.312;2023-10-19T01:00:55;18.40;;;9.67;;
7169;SDS011;3626;42.656;23.312;2023-10-19T01:01:01;18.00;;;9.52;;
7169;SDS011;3626;42.656;23.312;2023-10-19T01:01:10;17.89;;;9.40;;
7169;SDS011;3626;42.656;23.312;2023-10-19T01:01:18;17.67;;;9.53;;
7169;SDS011;3626;42.656;23.312;2023-10-19T01:01:30;17.63;;;9.51;;
7169;SDS011;3626;42.656;23.312;2023-10-19T01:01:37;17.60;;;9.20;;
7169;SDS011;3626;42.656;23.312;2023-10-19T01:01:49;17.32;;;8.93;;
7169;SDS011;3626;42.656;23.312;2023-10-19T01:01:58;16.77;;;8.64;;
7169;SDS011;3626;42.656;23.312;2023-10-19T01:02:21;16.15;;;8.48;;
7169;SDS011;3626;42.656;23.312;2023-10-19T01:02:34;15.27;;;8.36;;
7169;SDS011;3626;42.656;23.312;2023-10-19T01:02:39;14.87;;;8.50;;
7169;SDS011;3626;42.656;23.312;2023-10-19T01:02:48;16.03;;;8.33;;
7169;SDS011;3626;42.656;23.312;2023-10-19T01:02:57;16.87;;;8.77;;
7169;SDS011;3626;42.656;23.312;2023-10-19T01:03:05;17.49;;;8.97;;
7169;SDS011;3626;42.656;23.312;2023-10-19T01:03:14;18.37;;;9.21;;
7169;SDS011;3626;42.656;23.312;2023-10-19T01:03:22;19.30;;;9.40;;
7169;SDS011;3626;42.656;23.312;2023-10-19T01:03:28;20.40;;;9.43;;
7169;SDS011;3626;42.656;23.312;2023-10-19T01:03:40;21.58;;;9.63;;
7169;SDS011;3626;42.656;23.312;2023-10-19T01:03:49;20.89;;;10.03;;
7169;SDS011;3626;42.656;23.312;2023-10-19T01:03:58;20.23;;;9.57;;
7169;SDS011;3626;42.656;23.312;2023-10-19T01:04:04;20.08;;;9.38;;
7169;SDS011;3626;42.656;23.312;2023-10-19T01:04:10;19.88;;;9.15;;
7169;SDS011;3626;42.656;23.312;2023-10-19T01:04:19;19.89;;;8.89;;
7169;SDS011;3626;42.656;23.312;2023-10-19T01:04:27;19.73;;;8.87;;